Time;durP1;ratioP1;P1;durP2;ratioP2;P2;SDS_P1;SDS_P2;PMS_P1;PMS_P2;Temp;Humidity;BMP_temperature;BMP_pressure;BME280_temperature;BME280_humidity;BME280_pressure;Samples;Min_cycle;Max_cycle;Signal;HPM_P1;HPM_P2
2021/09/11 00:00:01;;;;;;;9.33;7.50;;;17.60;99.90;;;;;;4992991;28;20843;-62
2021/09/11 00:02:28;;;;;;;8.40;7.20;;;17.60;99.90;;;;;;4992907;28;20454;-61
2021/09/11 00:04:55;;;;;;;8.80;7.40;;;17.50;99.90;;;;;;4992959;28;20462;-61
2021/09/11 00:07:23;;;;;;;9.60;7.50;;;17.40;99.90;;;;;;4993265;28;20462;-61
2021/09/11 00:09:51;;;;;;;8.80;7.10;;;17.40;99.90;;;;;;4989376;28;20562;-60
2021/09/11 00:12:18;;;;;;;10.03;7.90;;;17.40;99.90;;;;;;4991130;28;20459;-62
2021/09/11 00:14:45;;;;;;;11.00;7.93;;;17.50;99.90;;;;;;4993073;28;21335;-61
2021/09/11 00:17:12;;;;;;;11.40;7.70;;;17.40;99.90;;;;;;4993110;28;20458;-60
2021/09/11 00:19:39;;;;;;;13.40;8.10;;;17.30;99.90;;;;;;4992432;28;20482;-61
2021/09/11 00:22:06;;;;;;;18.50;8.87;;;17.30;99.90;;;;;;4992642;28;20831;-59
2021/09/11 00:24:34;;;;;;;9.90;8.17;;;17.40;99.90;;;;;;4992864;28;20513;-59
2021/09/11 00:27:01;;;;;;;10.80;8.63;;;17.40;99.90;;;;;;4991745;28;20454;-61
2021/09/11 00:29:28;;;;;;;10.83;8.80;;;17.30;99.90;;;;;;4992672;28;20888;-59
2021/09/11 00:31:55;;;;;;;9.47;7.87;;;17.40;99.90;;;;;;4992183;28;20458;-60
2021/09/11 00:34:23;;;;;;;11.10;8.70;;;17.40;99.90;;;;;;4992657;28;20458;-60
2021/09/11 00:36:50;;;;;;;17.90;10.00;;;17.50;99.90;;;;;;4992611;28;20939;-60
2021/09/11 00:39:17;;;;;;;10.57;8.53;;;17.40;99.90;;;;;;4992989;28;20450;-60
2021/09/11 00:41:45;;;;;;;9.97;8.53;;;17.40;99.90;;;;;;4992434;28;20521;-60
2021/09/11 00:44:12;;;;;;;10.00;7.80;;;17.30;99.90;;;;;;4992240;28;20465;-60
2021/09/11 00:46:39;;;;;;;11.50;9.03;;;17.30;99.90;;;;;;4992678;28;20450;-60
2021/09/11 00:49:06;;;;;;;11.73;9.57;;;17.20;99.90;;;;;;4992590;28;20939;-60
2021/09/11 00:51:34;;;;;;;16.43;11.43;;;17.10;99.90;;;;;;4992276;28;20462;-59
2021/09/11 00:54:02;;;;;;;16.87;10.43;;;17.10;99.90;;;;;;4992778;28;20447;-60
2021/09/11 00:56:31;;;;;;;15.63;11.00;;;17.10;99.90;;;;;;4992308;28;20446;-60
2021/09/11 00:59:00;;;;;;;14.43;10.00;;;17.10;99.90;;;;;;4991887;28;20447;-60
2021/09/11 01:01:28;;;;;;;15.13;12.20;;;17.10;99.90;;;;;;4987517;28;20846;-60
2021/09/11 01:03:55;;;;;;;14.87;11.50;;;17.00;99.90;;;;;;4987785;28;20226;-60
2021/09/11 01:06:24;;;;;;;15.70;12.47;;;17.00;99.90;;;;;;4992482;28;20501;-60
2021/09/11 01:08:52;;;;;;;14.87;11.70;;;17.10;99.90;;;;;;4991933;28;20520;-61
2021/09/11 01:11:19;;;;;;;13.50;11.33;;;17.00;99.90;;;;;;4991166;28;20900;-60
2021/09/11 01:13:46;;;;;;;15.00;11.07;;;17.00;99.90;;;;;;4992126;28;20843;-60
2021/09/11 01:16:15;;;;;;;14.60;11.80;;;17.00;99.90;;;;;;4992216;28;20450;-60
2021/09/11 01:18:42;;;;;;;14.73;11.60;;;17.00;99.90;;;;;;4990246;28;20455;-61
2021/09/11 01:21:09;;;;;;;19.40;11.37;;;17.00;99.90;;;;;;4991997;28;20493;-60
2021/09/11 01:23:41;;;;;;;15.27;10.97;;;17.10;99.90;;;;;;4992286;28;20458;-60
2021/09/11 01:26:08;;;;;;;14.50;11.17;;;17.10;99.90;;;;;;4991689;28;20952;-60
2021/09/11 01:28:35;;;;;;;14.60;10.97;;;17.00;99.90;;;;;;4978309;28;20532;-61
2021/09/11 01:31:03;;;;;;;13.77;11.00;;;16.90;99.90;;;;;;4991640;28;20478;-60
2021/09/11 01:33:30;;;;;;;19.53;12.50;;;16.90;99.90;;;;;;4991793;28;20859;-60
2021/09/11 01:35:57;;;;;;;16.30;12.60;;;16.90;99.90;;;;;;4991996;28;20466;-61
2021/09/11 01:38:24;;;;;;;15.73;11.50;;;17.00;99.90;;;;;;4991775;28;20450;-60
2021/09/11 01:40:52;;;;;;;14.90;11.43;;;16.90;99.90;;;;;;4991885;28;20536;-60
2021/09/11 01:43:27;;;;;;;16.10;11.33;;;16.90;99.90;;;;;;4992028;28;20454;-60
2021/09/11 01:45:54;;;;;;;13.60;10.63;;;16.90;99.90;;;;;;4992549;28;20878;-60
2021/09/11 01:48:21;;;;;;;15.87;12.37;;;16.90;99.90;;;;;;4992008;28;20459;-60
2021/09/11 01:50:48;;;;;;;17.73;12.60;;;16.90;99.90;;;;;;4991194;28;20525;-60
2021/09/11 01:53:15;;;;;;;14.50;11.73;;;16.90;99.90;;;;;;4992107;28;20450;-61
2021/09/11 01:55:42;;;;;;;17.43;12.53;;;16.90;99.90;;;;;;4992829;28;20553;-59
2021/09/11 01:58:11;;;;;;;15.27;11.13;;;16.90;99.90;;;;;;4992844;28;20450;-60
2021/09/11 02:00:39;;;;;;;14.57;11.30;;;16.90;99.90;;;;;;4992749;28;21006;-60
2021/09/11 02:03:06;;;;;;;20.17;12.30;;;16.90;99.90;;;;;;4992539;28;20454;-60
2021/09/11 02:05:34;;;;;;;15.20;11.90;;;16.90;99.90;;;;;;4991674;28;20468;-60
2021/09/11 02:08:01;;;;;;;16.70;11.30;;;16.90;99.90;;;;;;4991693;28;20450;-60
2021/09/11 02:10:29;;;;;;;17.83;12.10;;;16.80;99.90;;;;;;4991694;28;20471;-60
2021/09/11 02:12:57;;;;;;;17.13;11.90;;;16.90;99.90;;;;;;4991913;28;20900;-60
2021/09/11 02:15:25;;;;;;;16.20;11.53;;;16.90;99.90;;;;;;4991963;28;20497;-60
2021/09/11 02:17:52;;;;;;;17.60;10.57;;;17.00;99.90;;;;;;4991452;28;20450;-60
2021/09/11 02:20:19;;;;;;;12.03;9.57;;;17.00;99.90;;;;;;4991149;28;21050;-61
2021/09/11 02:22:46;;;;;;;13.87;10.27;;;17.00;99.90;;;;;;4991576;28;20450;-60
2021/09/11 02:25:14;;;;;;;15.40;11.30;;;17.10;99.90;;;;;;4992126;28;20500;-61
2021/09/11 02:27:41;;;;;;;13.57;10.97;;;17.10;99.90;;;;;;4991847;28;20865;-60
2021/09/11 02:30:09;;;;;;;14.87;10.57;;;17.00;99.90;;;;;;4991623;28;20474;-60
2021/09/11 02:32:38;;;;;;;15.90;11.00;;;17.00;99.90;;;;;;4991459;28;20953;-60
2021/09/11 02:35:06;;;;;;;19.10;10.30;;;17.00;99.90;;;;;;4991704;28;20455;-60
2021/09/11 02:37:33;;;;;;;13.33;11.30;;;17.00;99.90;;;;;;4991997;28;20799;-60
2021/09/11 02:40:00;;;;;;;13.03;9.97;;;17.00;99.90;;;;;;4991021;28;20991;-60
2021/09/11 02:42:27;;;;;;;16.03;10.27;;;17.10;99.90;;;;;;4991004;28;20469;-60
2021/09/11 02:44:54;;;;;;;13.50;10.37;;;17.10;99.90;;;;;;4991632;28;20455;-60
2021/09/11 02:47:21;;;;;;;13.33;9.67;;;17.00;99.90;;;;;;4991721;28;20457;-60
2021/09/11 02:49:49;;;;;;;13.80;10.53;;;17.10;99.90;;;;;;4992089;28;20481;-61
2021/09/11 02:52:17;;;;;;;15.40;10.67;;;17.10;99.90;;;;;;4995038;28;20963;-60
2021/09/11 02:54:44;;;;;;;14.50;10.70;;;17.10;99.90;;;;;;4994856;28;20485;-60
2021/09/11 02:57:11;;;;;;;14.60;11.67;;;17.10;99.90;;;;;;4995228;28;20840;-60
2021/09/11 02:59:38;;;;;;;14.60;12.20;;;17.10;99.90;;;;;;4994981;28;20479;-61
2021/09/11 03:02:06;;;;;;;15.50;11.73;;;17.20;99.90;;;;;;4994717;28;20485;-60
2021/09/11 03:04:33;;;;;;;16.70;11.83;;;17.20;99.90;;;;;;4994649;28;20509;-60
2021/09/11 03:07:01;;;;;;;13.87;11.10;;;17.10;99.90;;;;;;4994750;28;20891;-60
2021/09/11 03:09:28;;;;;;;15.90;11.90;;;17.00;99.90;;;;;;4994882;28;20462;-60
2021/09/11 03:11:55;;;;;;;16.73;11.70;;;17.10;99.90;;;;;;4994359;28;20447;-60
2021/09/11 03:14:23;;;;;;;18.13;12.67;;;17.10;99.90;;;;;;4994801;28;20944;-60
2021/09/11 03:16:50;;;;;;;16.70;12.37;;;17.00;99.90;;;;;;4994520;28;20525;-60
2021/09/11 03:19:17;;;;;;;18.83;13.13;;;16.90;99.90;;;;;;4994923;28;20458;-60
2021/09/11 03:21:44;;;;;;;16.73;12.10;;;17.00;99.90;;;;;;4993966;28;20506;-60
2021/09/11 03:24:12;;;;;;;17.37;12.63;;;17.00;99.90;;;;;;4994103;28;20465;-61
2021/09/11 03:26:39;;;;;;;16.30;12.53;;;17.00;99.90;;;;;;4994555;28;20520;-60
2021/09/11 03:29:06;;;;;;;16.90;12.43;;;17.00;99.90;;;;;;4993940;28;20454;-61
2021/09/11 03:31:33;;;;;;;16.70;12.87;;;16.90;99.90;;;;;;4994150;28;20466;-60
2021/09/11 03:34:00;;;;;;;17.60;13.60;;;16.90;99.90;;;;;;4994080;28;20462;-60
2021/09/11 03:36:27;;;;;;;17.90;12.10;;;16.90;99.90;;;;;;4994421;28;20450;-60
2021/09/11 03:38:54;;;;;;;18.50;12.57;;;16.90;99.90;;;;;;4994329;28;20454;-60
2021/09/11 03:41:23;;;;;;;17.60;12.80;;;16.90;99.90;;;;;;4993411;28;20493;-60
2021/09/11 03:43:50;;;;;;;19.73;13.67;;;16.90;99.90;;;;;;4994249;28;20458;-60
2021/09/11 03:46:17;;;;;;;16.83;12.97;;;16.90;99.90;;;;;;4993526;28;20454;-61
2021/09/11 03:48:44;;;;;;;17.30;11.73;;;16.80;99.90;;;;;;4994156;28;20450;-61
2021/09/11 03:51:11;;;;;;;14.13;11.30;;;16.80;99.90;;;;;;4993117;28;20478;-60
2021/09/11 03:53:38;;;;;;;16.23;12.00;;;16.90;99.90;;;;;;4993319;28;20481;-60
2021/09/11 03:56:05;;;;;;;14.30;11.70;;;17.10;99.90;;;;;;4993586;28;20443;-60
2021/09/11 03:58:34;;;;;;;16.80;12.13;;;17.10;99.90;;;;;;4993355;28;20442;-60
2021/09/11 04:01:02;;;;;;;14.33;10.97;;;17.10;99.90;;;;;;4992309;28;20490;-61
2021/09/11 04:03:31;;;;;;;15.23;11.43;;;17.10;99.90;;;;;;4993122;28;20453;-60
2021/09/11 04:05:59;;;;;;;18.13;12.07;;;17.10;99.90;;;;;;4993133;28;20454;-60
2021/09/11 04:08:30;;;;;;;13.07;10.30;;;17.10;99.90;;;;;;4992379;28;20450;-60
2021/09/11 04:10:57;;;;;;;13.57;10.83;;;17.10;99.90;;;;;;4992801;28;20459;-60
2021/09/11 04:13:24;;;;;;;15.93;11.80;;;17.10;99.90;;;;;;4993024;28;20447;-60
2021/09/11 04:15:53;;;;;;;13.33;11.03;;;17.10;99.90;;;;;;4992700;28;20884;-60
2021/09/11 04:18:20;;;;;;;14.10;11.50;;;17.10;99.90;;;;;;4992944;28;20482;-60
2021/09/11 04:20:47;;;;;;;20.17;11.07;;;17.10;99.90;;;;;;4992577;28;21050;-60
2021/09/11 04:23:15;;;;;;;15.95;11.30;;;17.10;99.90;;;;;;4990975;28;20452;-61
2021/09/11 04:25:42;;;;;;;13.90;11.23;;;17.10;99.90;;;;;;4991599;28;20293;-60
2021/09/11 04:28:09;;;;;;;12.27;10.00;;;17.10;99.90;;;;;;4991739;28;20979;-60
2021/09/11 04:30:36;;;;;;;13.63;10.47;;;17.20;99.90;;;;;;4991657;28;20486;-60
2021/09/11 04:33:05;;;;;;;14.57;11.27;;;17.30;99.90;;;;;;4991559;28;20450;-60
2021/09/11 04:35:33;;;;;;;14.20;10.10;;;17.20;99.90;;;;;;4992498;28;20453;-60
2021/09/11 04:38:00;;;;;;;13.90;10.90;;;17.20;99.90;;;;;;4992756;28;20550;-60
2021/09/11 04:40:28;;;;;;;14.80;11.40;;;17.30;99.90;;;;;;4992715;28;21010;-60
2021/09/11 04:42:55;;;;;;;11.63;9.90;;;17.40;99.90;;;;;;4992441;28;20497;-60
2021/09/11 04:45:23;;;;;;;13.47;11.00;;;17.40;99.90;;;;;;4992965;28;20450;-61
2021/09/11 04:47:50;;;;;;;12.77;10.50;;;17.40;99.90;;;;;;4992797;28;20855;-61
2021/09/11 04:50:19;;;;;;;17.33;11.13;;;17.40;99.90;;;;;;4992751;28;20475;-60
2021/09/11 04:52:46;;;;;;;14.60;11.37;;;17.10;99.90;;;;;;4992841;28;20999;-62
2021/09/11 04:55:16;;;;;;;12.70;9.70;;;17.10;99.90;;;;;;4993176;28;20505;-60
2021/09/11 04:57:43;;;;;;;13.67;11.50;;;17.10;99.90;;;;;;4992577;28;20454;-60
2021/09/11 05:00:12;;;;;;;13.77;11.13;;;17.00;99.90;;;;;;4992387;28;20502;-61
2021/09/11 05:02:39;;;;;;;13.30;10.67;;;17.00;99.90;;;;;;4992675;28;20505;-61
2021/09/11 05:05:10;;;;;;;16.00;11.53;;;17.00;99.90;;;;;;4992363;28;20895;-60
2021/09/11 05:07:38;;;;;;;14.90;10.20;;;17.10;99.90;;;;;;4993039;28;20442;-61
2021/09/11 05:10:07;;;;;;;15.70;11.40;;;17.00;99.90;;;;;;4992582;28;20486;-60
2021/09/11 05:12:33;;;;;;;14.00;10.73;;;17.00;99.90;;;;;;4992360;28;20497;-60
2021/09/11 05:15:00;;;;;;;13.80;9.47;;;17.00;99.90;;;;;;4989003;28;20979;-61
2021/09/11 05:17:27;;;;;;;14.70;11.60;;;17.00;99.90;;;;;;4991974;28;20473;-60
2021/09/11 05:19:55;;;;;;;18.37;11.00;;;17.00;99.90;;;;;;4991777;28;20474;-60
2021/09/11 05:22:22;;;;;;;12.20;9.47;;;17.00;99.90;;;;;;4991630;28;20479;-60
2021/09/11 05:24:50;;;;;;;12.37;10.20;;;17.10;99.90;;;;;;4992048;28;20501;-61
2021/09/11 05:27:17;;;;;;;14.27;10.57;;;17.20;99.90;;;;;;4991444;28;20454;-60
2021/09/11 05:29:44;;;;;;;12.47;10.33;;;17.20;99.90;;;;;;4986915;28;20469;-60
2021/09/11 05:32:11;;;;;;;14.53;10.90;;;17.20;99.90;;;;;;4991196;28;20446;-60
2021/09/11 05:34:38;;;;;;;14.50;10.70;;;17.30;99.90;;;;;;4991390;28;20446;-60
2021/09/11 05:37:06;;;;;;;14.70;11.00;;;17.30;99.90;;;;;;4991721;28;20798;-60
2021/09/11 05:39:33;;;;;;;15.47;11.70;;;17.20;99.90;;;;;;4991749;28;21136;-60
2021/09/11 05:42:01;;;;;;;17.47;12.83;;;17.10;99.90;;;;;;4991442;28;21139;-60
2021/09/11 05:44:28;;;;;;;16.70;11.87;;;17.20;99.90;;;;;;4988055;28;20446;-60
2021/09/11 05:46:56;;;;;;;17.37;12.77;;;17.30;99.90;;;;;;4991055;28;20508;-60
2021/09/11 05:49:23;;;;;;;19.47;13.10;;;17.30;99.90;;;;;;4991836;28;20455;-60
2021/09/11 05:51:50;;;;;;;18.90;14.00;;;17.30;99.90;;;;;;4991579;28;20458;-59
2021/09/11 05:54:17;;;;;;;19.20;13.57;;;17.20;99.90;;;;;;4987683;28;20528;-60
2021/09/11 05:56:44;;;;;;;18.20;12.90;;;17.30;99.90;;;;;;4990644;28;20462;-60
2021/09/11 05:59:13;;;;;;;15.30;12.53;;;17.30;99.90;;;;;;4991279;28;20516;-60
2021/09/11 06:01:40;;;;;;;23.17;13.60;;;17.30;99.90;;;;;;4991243;28;20486;-60
2021/09/11 06:04:07;;;;;;;16.50;12.93;;;17.20;99.90;;;;;;4991336;28;20486;-60
2021/09/11 06:06:36;;;;;;;15.80;12.57;;;17.30;99.90;;;;;;4987272;28;20525;-60
2021/09/11 06:09:03;;;;;;;18.73;13.67;;;17.40;99.90;;;;;;4991488;28;20449;-60
2021/09/11 06:11:30;;;;;;;18.90;13.13;;;17.30;99.90;;;;;;4990694;28;20478;-60
2021/09/11 06:13:57;;;;;;;19.73;13.53;;;17.30;99.90;;;;;;4991460;28;20455;-62
2021/09/11 06:16:25;;;;;;;19.63;13.73;;;17.30;99.90;;;;;;4991463;28;20496;-60
2021/09/11 06:18:52;;;;;;;19.10;13.87;;;17.40;99.90;;;;;;4990846;28;20450;-60
2021/09/11 06:21:19;;;;;;;18.87;13.80;;;17.40;99.90;;;;;;4990706;28;20541;-60
2021/09/11 06:23:46;;;;;;;20.80;14.10;;;17.40;99.90;;;;;;4991450;28;20442;-60
2021/09/11 06:26:13;;;;;;;20.23;13.70;;;17.40;99.90;;;;;;4994152;28;20505;-59
2021/09/11 06:28:40;;;;;;;18.77;13.73;;;17.50;99.90;;;;;;4993828;28;20463;-59
2021/09/11 06:31:07;;;;;;;17.30;12.70;;;17.40;99.90;;;;;;4992730;28;20933;-59
2021/09/11 06:33:36;;;;;;;20.80;13.27;;;17.50;99.90;;;;;;4994418;28;20868;-60
2021/09/11 06:36:03;;;;;;;20.70;14.67;;;17.60;99.90;;;;;;4993457;28;20449;-60
2021/09/11 06:38:30;;;;;;;18.03;13.03;;;17.70;99.90;;;;;;4993713;28;20955;-60
2021/09/11 06:40:57;;;;;;;18.40;13.87;;;17.80;99.90;;;;;;4993528;28;20474;-59
2021/09/11 06:43:24;;;;;;;18.87;14.80;;;17.90;99.90;;;;;;4993997;28;20536;-59
2021/09/11 06:45:51;;;;;;;18.00;13.33;;;17.80;99.90;;;;;;4993967;28;20505;-62
2021/09/11 06:48:18;;;;;;;16.47;13.20;;;17.90;99.90;;;;;;4993760;28;20458;-60
2021/09/11 06:50:47;;;;;;;16.20;12.73;;;17.90;99.90;;;;;;4993324;28;20474;-60
2021/09/11 06:53:14;;;;;;;19.57;12.67;;;18.00;99.90;;;;;;4990278;28;20446;-59
2021/09/11 06:55:41;;;;;;;16.00;12.53;;;18.00;99.90;;;;;;4993685;28;20451;-60
2021/09/11 06:58:08;;;;;;;16.43;12.37;;;18.10;99.90;;;;;;4994706;28;20516;-60
2021/09/11 07:00:35;;;;;;;16.30;13.17;;;18.20;99.90;;;;;;4994411;28;20478;-59
2021/09/11 07:03:02;;;;;;;15.30;12.17;;;18.30;99.90;;;;;;4994526;28;20485;-60
2021/09/11 07:05:29;;;;;;;14.83;11.07;;;18.30;99.90;;;;;;4993796;28;20822;-60
2021/09/11 07:07:57;;;;;;;15.00;11.60;;;18.40;99.90;;;;;;4994273;28;20873;-59
2021/09/11 07:10:24;;;;;;;17.10;13.00;;;18.40;99.90;;;;;;4993583;28;20474;-60
2021/09/11 07:12:51;;;;;;;18.03;13.97;;;18.40;99.90;;;;;;4994283;28;20450;-59
2021/09/11 07:15:18;;;;;;;15.90;12.30;;;18.40;99.90;;;;;;4994559;28;20454;-60
2021/09/11 07:17:46;;;;;;;14.93;11.90;;;18.40;99.90;;;;;;4994517;28;20450;-60
2021/09/11 07:20:16;;;;;;;15.30;11.50;;;18.50;99.90;;;;;;4994279;28;20569;-60
2021/09/11 07:22:43;;;;;;;17.10;12.70;;;18.50;99.90;;;;;;4994784;28;20470;-60
2021/09/11 07:25:15;;;;;;;16.23;12.37;;;18.50;99.90;;;;;;4993935;28;20458;-60
2021/09/11 07:27:42;;;;;;;14.97;11.63;;;18.60;99.90;;;;;;4994689;28;20489;-59
2021/09/11 07:30:14;;;;;;;14.70;11.60;;;18.80;99.90;;;;;;4993879;28;20486;-59
2021/09/11 07:32:41;;;;;;;19.43;12.70;;;18.70;99.90;;;;;;4994352;28;21063;-60
2021/09/11 07:35:08;;;;;;;14.80;11.63;;;18.80;99.90;;;;;;4993787;28;20936;-60
2021/09/11 07:37:35;;;;;;;16.43;12.43;;;18.80;99.90;;;;;;4994261;28;20501;-60
2021/09/11 07:40:03;;;;;;;14.80;12.17;;;18.90;99.90;;;;;;4992313;28;20474;-60
2021/09/11 07:42:31;;;;;;;13.20;11.00;;;19.00;99.90;;;;;;4993949;28;20481;-60
2021/09/11 07:44:58;;;;;;;13.67;10.90;;;18.90;99.90;;;;;;4994270;28;20454;-60
2021/09/11 07:47:25;;;;;;;16.83;12.07;;;19.00;99.90;;;;;;4994065;28;20454;-59
2021/09/11 07:49:52;;;;;;;12.67;10.67;;;19.10;99.90;;;;;;4993806;28;20467;-60
2021/09/11 07:52:19;;;;;;;14.60;11.77;;;19.30;99.90;;;;;;4993706;28;20858;-59
2021/09/11 07:54:46;;;;;;;14.60;11.47;;;19.20;99.90;;;;;;4993607;28;20450;-60
2021/09/11 07:57:13;;;;;;;14.13;10.67;;;19.20;99.90;;;;;;4994055;28;20504;-60
2021/09/11 07:59:41;;;;;;;14.57;11.97;;;19.20;99.90;;;;;;4993913;28;20895;-60
2021/09/11 08:02:08;;;;;;;14.17;10.97;;;19.20;99.90;;;;;;4993526;28;20482;-59
2021/09/11 08:04:36;;;;;;;11.77;9.50;;;19.40;99.90;;;;;;4993702;28;20457;-60
2021/09/11 08:07:04;;;;;;;17.60;10.50;;;19.70;99.90;;;;;;4993698;28;20520;-60
2021/09/11 08:09:31;;;;;;;11.70;9.90;;;19.90;99.90;;;;;;4993129;28;20454;-60
2021/09/11 08:11:58;;;;;;;11.97;9.80;;;20.00;99.90;;;;;;4992643;28;20442;-60
2021/09/11 08:14:25;;;;;;;10.63;8.73;;;20.10;99.90;;;;;;4993443;28;20451;-60
2021/09/11 08:16:54;;;;;;;12.13;9.50;;;20.20;99.90;;;;;;4993472;28;20537;-60
2021/09/11 08:19:21;;;;;;;14.03;9.90;;;20.50;99.90;;;;;;4993520;28;20936;-60
2021/09/11 08:21:48;;;;;;;9.53;8.20;;;20.50;99.90;;;;;;4992947;28;20549;-60
2021/09/11 08:24:15;;;;;;;11.27;9.33;;;20.50;99.90;;;;;;4993211;28;20463;-60
2021/09/11 08:26:42;;;;;;;11.03;8.77;;;20.50;99.90;;;;;;4993479;28;20524;-60
2021/09/11 08:29:09;;;;;;;11.30;9.40;;;20.30;99.90;;;;;;4993271;28;20936;-60
2021/09/11 08:31:36;;;;;;;10.43;8.70;;;20.40;99.90;;;;;;4993054;28;20484;-61
2021/09/11 08:34:05;;;;;;;10.17;8.77;;;20.60;99.90;;;;;;4993251;28;20462;-60
2021/09/11 08:36:32;;;;;;;9.40;7.77;;;20.60;99.90;;;;;;4992853;28;20458;-60
2021/09/11 08:38:59;;;;;;;9.33;8.03;;;20.60;99.90;;;;;;4992903;28;20443;-60
2021/09/11 08:41:27;;;;;;;9.17;7.80;;;20.60;99.90;;;;;;4992975;28;20534;-60
2021/09/11 08:43:55;;;;;;;11.10;8.30;;;20.50;99.90;;;;;;4992910;28;20564;-60
2021/09/11 08:46:23;;;;;;;10.80;7.53;;;20.60;99.90;;;;;;4992706;28;20454;-60
2021/09/11 08:48:49;;;;;;;8.73;7.13;;;20.70;99.90;;;;;;4990655;28;20505;-60
2021/09/11 08:51:18;;;;;;;8.70;7.60;;;20.80;99.90;;;;;;4991546;28;20474;-60
2021/09/11 08:53:45;;;;;;;8.57;7.30;;;20.90;99.90;;;;;;4992360;28;20484;-61
2021/09/11 08:56:12;;;;;;;7.67;6.80;;;21.50;99.90;;;;;;4992569;28;20451;-60
2021/09/11 08:58:39;;;;;;;7.57;6.87;;;21.90;99.90;;;;;;4992311;28;20458;-60
2021/09/11 09:01:06;;;;;;;7.10;5.90;;;22.30;99.90;;;;;;4992456;28;20536;-61
2021/09/11 09:03:36;;;;;;;8.00;7.20;;;22.70;99.90;;;;;;4992490;28;20560;-61
2021/09/11 09:06:22;;;;;;;6.63;5.97;;;22.90;99.90;;;;;;4991882;28;20545;-61
2021/09/11 09:08:53;;;;;;;6.60;5.97;;;23.20;99.90;;;;;;4992743;28;20533;-61
2021/09/11 09:11:23;;;;;;;7.43;6.70;;;23.80;99.90;;;;;;4992235;28;20524;-61
2021/09/11 09:13:53;;;;;;;6.53;5.93;;;24.40;99.90;;;;;;4991897;28;20446;-61
2021/09/11 09:16:21;;;;;;;6.70;6.10;;;25.10;99.90;;;;;;4991837;28;20509;-60
2021/09/11 09:18:48;;;;;;;6.47;5.87;;;25.80;99.90;;;;;;4988694;28;20450;-61
2021/09/11 09:21:19;;;;;;;6.30;5.70;;;26.00;99.90;;;;;;4991644;28;20517;-61
2021/09/11 09:23:48;;;;;;;6.50;6.00;;;26.70;99.90;;;;;;4991866;28;20486;-61
2021/09/11 09:26:15;;;;;;;8.23;6.83;;;26.90;99.90;;;;;;4991955;28;20799;-61
2021/09/11 09:28:42;;;;;;;6.43;5.83;;;27.30;99.90;;;;;;4987321;28;20509;-61
2021/09/11 09:31:11;;;;;;;12.27;7.40;;;27.60;99.90;;;;;;4990291;28;20562;-61
2021/09/11 09:33:39;;;;;;;7.03;6.40;;;27.30;99.90;;;;;;4989642;28;20964;-61
2021/09/11 09:36:06;;;;;;;6.63;5.90;;;26.50;99.90;;;;;;4991741;28;20454;-61
2021/09/11 09:38:35;;;;;;;7.30;6.17;;;26.20;99.90;;;;;;4991560;28;20446;-62
2021/09/11 09:41:11;;;;;;;7.03;6.40;;;26.50;99.90;;;;;;4991384;28;20482;-62
2021/09/11 09:43:42;;;;;;;8.57;6.33;;;26.80;99.90;;;;;;4991505;28;20905;-62
2021/09/11 09:46:11;;;;;;;6.40;5.80;;;27.20;99.90;;;;;;4991207;28;20482;-62
2021/09/11 09:48:39;;;;;;;6.17;5.67;;;27.20;99.90;;;;;;4991411;28;20463;-61
2021/09/11 09:51:08;;;;;;;6.47;5.87;;;26.60;99.90;;;;;;4991130;28;20520;-62
2021/09/11 09:53:38;;;;;;;6.97;6.37;;;26.30;99.90;;;;;;4991778;28;20442;-62
2021/09/11 09:56:06;;;;;;;7.47;6.77;;;26.90;99.90;;;;;;4991896;28;20537;-62
2021/09/11 09:58:34;;;;;;;5.90;5.40;;;27.00;99.90;;;;;;4992110;28;20450;-61
2021/09/11 10:01:01;;;;;;;8.40;6.63;;;27.00;99.90;;;;;;4995142;28;20536;-61
2021/09/11 10:03:28;;;;;;;6.70;6.00;;;27.50;99.90;;;;;;4995227;28;20505;-62
2021/09/11 10:05:59;;;;;;;6.83;6.23;;;27.60;99.90;;;;;;4995340;28;20446;-61
2021/09/11 10:08:28;;;;;;;6.70;5.90;;;27.20;99.90;;;;;;4995476;28;20497;-64
2021/09/11 10:10:57;;;;;;;6.10;5.50;;;27.50;99.90;;;;;;4995097;28;20476;-61
2021/09/11 10:13:26;;;;;;;7.13;5.80;;;27.70;99.90;;;;;;4995063;28;20447;-62
2021/09/11 10:15:55;;;;;;;7.07;6.00;;;27.60;99.90;;;;;;4995459;28;20538;-62
2021/09/11 10:18:41;;;;;;;7.20;6.60;;;27.70;99.90;;;;;;4991542;28;20458;-63
2021/09/11 10:21:27;;;;;;;7.33;6.63;;;27.40;99.90;;;;;;4992415;28;20462;-62
2021/09/11 10:24:29;;;;;;;6.23;5.73;;;27.50;99.90;;;;;;4993253;28;20477;-61
2021/09/11 10:27:01;;;;;;;6.30;5.67;;;27.40;99.90;;;;;;4993129;28;20508;-60
2021/09/11 10:29:50;;;;;;;5.77;5.17;;;27.80;99.90;;;;;;4992012;28;20454;-60
2021/09/11 10:32:44;;;;;;;5.83;5.33;;;28.20;99.90;;;;;;4990117;28;20459;-60
2021/09/11 10:35:13;;;;;;;6.53;5.93;;;28.40;99.90;;;;;;4978650;28;20960;-63
2021/09/11 10:37:43;;;;;;;6.60;6.10;;;28.60;99.90;;;;;;4994182;28;20462;-63
2021/09/11 10:40:20;;;;;;;6.77;6.03;;;28.90;99.90;;;;;;4993759;28;20995;-63
2021/09/11 10:43:24;;;;;;;6.90;6.30;;;28.50;99.90;;;;;;4990609;28;20474;-64
2021/09/11 10:46:02;;;;;;;7.50;6.80;;;27.40;99.90;;;;;;4991516;28;20979;-60
2021/09/11 10:48:47;;;;;;;7.10;6.50;;;26.10;99.90;;;;;;4991505;28;20442;-60
2021/09/11 10:51:33;;;;;;;5.90;5.40;;;26.40;99.90;;;;;;4992838;28;21004;-60
2021/09/11 10:54:12;;;;;;;6.27;5.67;;;26.80;99.90;;;;;;4993177;28;20453;-60
2021/09/11 10:56:45;;;;;;;6.87;6.27;;;27.00;99.90;;;;;;4993023;28;20831;-60
2021/09/11 10:59:35;;;;;;;6.93;5.93;;;26.60;99.90;;;;;;4993369;28;20486;-60
2021/09/11 11:02:08;;;;;;;6.10;5.50;;;26.60;99.90;;;;;;4993857;28;20493;-59
2021/09/11 11:04:40;;;;;;;5.77;5.00;;;26.70;99.90;;;;;;4994256;28;20481;-59
2021/09/11 11:07:10;;;;;;;7.30;6.13;;;26.20;99.90;;;;;;4990875;28;20450;-60
2021/09/11 11:09:40;;;;;;;6.50;5.90;;;25.30;99.90;;;;;;4993347;28;20956;-60
2021/09/11 11:12:08;;;;;;;6.70;6.00;;;24.50;99.90;;;;;;4993337;28;21028;-60
2021/09/11 11:14:44;;;;;;;6.27;5.67;;;24.50;99.90;;;;;;4993262;28;20995;-60
2021/09/11 11:17:12;;;;;;;6.60;6.00;;;24.40;99.90;;;;;;4993930;28;20454;-59
2021/09/11 11:19:43;;;;;;;7.50;6.00;;;24.20;99.90;;;;;;4993283;28;20970;-59
2021/09/11 11:22:12;;;;;;;8.20;5.97;;;24.10;99.90;;;;;;4993799;28;20447;-59
2021/09/11 11:24:41;;;;;;;6.73;5.80;;;24.00;99.90;;;;;;4990144;28;20486;-59
2021/09/11 11:27:10;;;;;;;6.93;6.23;;;24.00;99.90;;;;;;4992555;28;20518;-60
2021/09/11 11:29:39;;;;;;;7.13;6.43;;;23.50;99.90;;;;;;4993049;28;20462;-61
2021/09/11 11:32:08;;;;;;;6.40;5.73;;;23.50;99.90;;;;;;4993417;28;20446;-60
2021/09/11 11:34:37;;;;;;;5.57;5.07;;;23.50;99.90;;;;;;4992152;28;20459;-60
2021/09/11 11:37:06;;;;;;;8.60;5.67;;;23.80;99.90;;;;;;4992913;28;20457;-60
2021/09/11 11:39:35;;;;;;;6.13;5.53;;;24.00;99.90;;;;;;4992812;28;20455;-59
2021/09/11 11:42:06;;;;;;;6.03;5.50;;;24.00;99.90;;;;;;4993260;28;21122;-60
2021/09/11 11:44:36;;;;;;;6.87;6.17;;;23.90;99.90;;;;;;4991347;28;20513;-59
2021/09/11 11:47:23;;;;;;;6.03;5.27;;;23.70;99.90;;;;;;4992843;28;20517;-59
2021/09/11 11:49:51;;;;;;;5.97;5.37;;;23.30;99.90;;;;;;4992694;28;20470;-59
2021/09/11 11:52:19;;;;;;;6.40;5.80;;;23.30;99.90;;;;;;4992231;28;20447;-59
2021/09/11 11:54:48;;;;;;;7.50;5.87;;;23.60;99.90;;;;;;4991594;28;20471;-59
2021/09/11 11:57:17;;;;;;;5.50;4.90;;;23.90;99.90;;;;;;4991859;28;20455;-59
2021/09/11 11:59:45;;;;;;;4.83;4.43;;;24.10;99.90;;;;;;4992085;28;20461;-60
2021/09/11 12:02:24;;;;;;;5.80;5.00;;;24.40;99.90;;;;;;4992488;28;20513;-59
2021/09/11 12:04:53;;;;;;;5.13;4.50;;;24.20;99.90;;;;;;4988591;28;20565;-59
2021/09/11 12:07:28;;;;;;;4.87;4.43;;;24.00;99.90;;;;;;4991400;28;20459;-60
2021/09/11 12:10:00;;;;;;;5.03;4.50;;;23.90;99.90;;;;;;4992253;28;20470;-59
2021/09/11 12:12:29;;;;;;;4.63;4.23;;;23.80;99.90;;;;;;4991995;28;20509;-60
2021/09/11 12:14:58;;;;;;;6.30;4.17;;;24.10;99.90;;;;;;4992374;28;20450;-59
2021/09/11 12:17:26;;;;;;;4.87;4.47;;;23.80;99.90;;;;;;4991728;28;20461;-60
2021/09/11 12:19:54;;;;;;;5.50;4.37;;;23.50;99.90;;;;;;4992040;28;20545;-60
2021/09/11 12:22:23;;;;;;;4.13;3.83;;;23.60;99.90;;;;;;4987175;28;20458;-60
2021/09/11 12:25:00;;;;;;;4.63;4.23;;;23.70;99.90;;;;;;4990783;28;20482;-60
2021/09/11 12:27:29;;;;;;;5.37;4.87;;;23.90;99.90;;;;;;4992055;28;20470;-60
2021/09/11 12:30:03;;;;;;;4.43;4.03;;;24.20;99.90;;;;;;4991850;28;20478;-58
2021/09/11 12:32:32;;;;;;;5.03;4.30;;;24.50;99.90;;;;;;4991628;28;20523;-58
2021/09/11 12:35:07;;;;;;;4.87;4.43;;;24.40;99.90;;;;;;4991197;28;20450;-58
2021/09/11 12:37:53;;;;;;;4.90;4.50;;;24.20;99.90;;;;;;4991641;28;20521;-58
2021/09/11 12:40:21;;;;;;;4.10;3.80;;;23.90;99.90;;;;;;4990198;28;20999;-57
2021/09/11 12:42:49;;;;;;;5.73;3.67;;;23.70;99.90;;;;;;4991043;28;20455;-58